sensor_id;sensor_type;location;lat;lon;timestamp;pressure;altitude;pressure_sealevel;temperature;humidity
62592;BME280;48659;41.622;2.276;2023-05-01T00:01:11;99852.61;;;17.62;63.90
62592;BME280;48659;41.622;2.276;2023-05-01T00:03:39;99854.81;;;14.48;74.20
62592;BME280;48659;41.622;2.276;2023-05-01T00:06:07;99850.77;;;15.52;74.50
62592;BME280;48659;41.622;2.276;2023-05-01T00:08:34;99845.31;;;16.71;68.20
62592;BME280;48659;41.622;2.276;2023-05-01T00:11:03;99840.51;;;17.85;64.89
62592;BME280;48659;41.622;2.276;2023-05-01T00:13:30;99838.50;;;17.20;66.43
62592;BME280;48659;41.622;2.276;2023-05-01T00:15:58;99838.75;;;15.86;68.25
62592;BME280;48659;41.622;2.276;2023-05-01T00:18:26;99837.55;;;15.19;74.34
62592;BME280;48659;41.622;2.276;2023-05-01T00:20:55;99832.77;;;15.94;71.08
62592;BME280;48659;41.622;2.276;2023-05-01T00:23:22;99827.85;;;16.72;69.44
62592;BME280;48659;41.622;2.276;2023-05-01T00:25:51;99824.87;;;16.17;69.19
62592;BME280;48659;41.622;2.276;2023-05-01T00:28:18;99822.60;;;16.35;66.66
62592;BME280;48659;41.622;2.276;2023-05-01T00:30:45;99822.39;;;16.79;65.21
62592;BME280;48659;41.622;2.276;2023-05-01T00:33:12;99825.10;;;16.93;66.88
62592;BME280;48659;41.622;2.276;2023-05-01T00:35:43;99827.93;;;16.23;68.99
62592;BME280;48659;41.622;2.276;2023-05-01T00:38:10;99817.46;;;17.29;66.16
62592;BME280;48659;41.622;2.276;2023-05-01T00:40:53;99818.16;;;17.52;63.81
62592;BME280;48659;41.622;2.276;2023-05-01T00:43:20;99818.16;;;17.60;63.07
62592;BME280;48659;41.622;2.276;2023-05-01T00:45:51;99817.79;;;17.97;60.80
62592;BME280;48659;41.622;2.276;2023-05-01T00:48:19;99812.57;;;18.67;59.26
62592;BME280;48659;41.622;2.276;2023-05-01T00:50:48;99808.47;;;18.40;60.36
62592;BME280;48659;41.622;2.276;2023-05-01T00:53:16;99810.19;;;17.80;62.83
62592;BME280;48659;41.622;2.276;2023-05-01T00:55:44;99804.44;;;19.13;59.41
62592;BME280;48659;41.622;2.276;2023-05-01T00:58:12;99805.34;;;17.98;61.52
62592;BME280;48659;41.622;2.276;2023-05-01T01:00:39;99802.97;;;17.60;63.78
62592;BME280;48659;41.622;2.276;2023-05-01T01:03:06;99801.80;;;17.83;62.33
62592;BME280;48659;41.622;2.276;2023-05-01T01:05:37;99802.76;;;15.10;72.58
62592;BME280;48659;41.622;2.276;2023-05-01T01:08:14;99801.66;;;15.69;70.80
62592;BME280;48659;41.622;2.276;2023-05-01T01:11:05;99800.81;;;17.01;64.31
62592;BME280;48659;41.622;2.276;2023-05-01T01:13:50;99796.81;;;17.65;65.57
62592;BME280;48659;41.622;2.276;2023-05-01T01:16:26;99792.72;;;16.45;63.98
62592;BME280;48659;41.622;2.276;2023-05-01T01:19:01;99791.63;;;14.58;72.12
62592;BME280;48659;41.622;2.276;2023-05-01T01:21:37;99786.35;;;14.42;72.53
62592;BME280;48659;41.622;2.276;2023-05-01T01:24:25;99788.27;;;15.69;67.53
62592;BME280;48659;41.622;2.276;2023-05-01T01:29:30;99787.60;;;18.15;63.59
62592;BME280;48659;41.622;2.276;2023-05-01T01:32:25;99782.24;;;18.73;60.18
62592;BME280;48659;41.622;2.276;2023-05-01T01:35:02;99787.39;;;18.81;59.12
62592;BME280;48659;41.622;2.276;2023-05-01T01:37:39;99789.09;;;18.70;58.92
62592;BME280;48659;41.622;2.276;2023-05-01T01:40:10;99789.02;;;18.65;59.25
62592;BME280;48659;41.622;2.276;2023-05-01T01:42:41;99792.68;;;18.62;59.51
62592;BME280;48659;41.622;2.276;2023-05-01T01:45:21;99788.47;;;18.92;59.08
62592;BME280;48659;41.622;2.276;2023-05-01T01:47:52;99784.48;;;18.49;57.82
62592;BME280;48659;41.622;2.276;2023-05-01T01:50:23;99788.89;;;19.53;57.06
62592;BME280;48659;41.622;2.276;2023-05-01T01:52:52;99784.87;;;19.02;56.89
62592;BME280;48659;41.622;2.276;2023-05-01T01:55:23;99780.78;;;19.14;56.79
62592;BME280;48659;41.622;2.276;2023-05-01T01:57:52;99779.10;;;18.25;57.50
62592;BME280;48659;41.622;2.276;2023-05-01T02:00:21;99780.76;;;18.92;58.73
62592;BME280;48659;41.622;2.276;2023-05-01T02:02:50;99774.34;;;18.43;58.47
62592;BME280;48659;41.622;2.276;2023-05-01T02:05:20;99771.18;;;19.05;58.20
62592;BME280;48659;41.622;2.276;2023-05-01T02:07:49;99770.67;;;18.58;59.50
62592;BME280;48659;41.622;2.276;2023-05-01T02:10:18;99765.55;;;18.71;59.31
62592;BME280;48659;41.622;2.276;2023-05-01T02:12:47;99770.61;;;18.19;60.23
62592;BME280;48659;41.622;2.276;2023-05-01T02:15:18;99763.32;;;18.50;59.91
62592;BME280;48659;41.622;2.276;2023-05-01T02:17:48;99756.92;;;18.70;59.56
62592;BME280;48659;41.622;2.276;2023-05-01T02:20:17;99760.56;;;19.15;58.43
62592;BME280;48659;41.622;2.276;2023-05-01T02:22:46;99755.42;;;18.44;58.81
62592;BME280;48659;41.622;2.276;2023-05-01T02:25:14;99763.49;;;18.36;60.18
62592;BME280;48659;41.622;2.276;2023-05-01T02:27:47;99764.94;;;18.08;61.03
62592;BME280;48659;41.622;2.276;2023-05-01T02:30:17;99762.59;;;18.37;59.87
62592;BME280;48659;41.622;2.276;2023-05-01T02:32:51;99757.81;;;17.64;60.69
62592;BME280;48659;41.622;2.276;2023-05-01T02:35:19;99753.30;;;18.49;60.00
62592;BME280;48659;41.622;2.276;2023-05-01T02:37:46;99757.60;;;18.13;60.14
62592;BME280;48659;41.622;2.276;2023-05-01T02:40:14;99751.95;;;18.75;59.61
62592;BME280;48659;41.622;2.276;2023-05-01T02:42:50;99748.93;;;19.05;58.98
62592;BME280;48659;41.622;2.276;2023-05-01T02:45:20;99741.38;;;18.61;59.00
62592;BME280;48659;41.622;2.276;2023-05-01T02:47:51;99746.19;;;17.47;59.88
62592;BME280;48659;41.622;2.276;2023-05-01T02:50:21;99739.92;;;18.96;57.39
62592;BME280;48659;41.622;2.276;2023-05-01T02:52:50;99740.04;;;18.35;58.16
62592;BME280;48659;41.622;2.276;2023-05-01T02:55:18;99743.01;;;19.13;57.95
62592;BME280;48659;41.622;2.276;2023-05-01T02:57:50;99740.26;;;18.79;58.41
62592;BME280;48659;41.622;2.276;2023-05-01T03:00:17;99737.93;;;19.18;58.62
62592;BME280;48659;41.622;2.276;2023-05-01T03:02:50;99739.25;;;17.96;59.52
62592;BME280;48659;41.622;2.276;2023-05-01T03:05:18;99744.79;;;18.44;59.90
62592;BME280;48659;41.622;2.276;2023-05-01T03:07:46;99746.63;;;18.08;60.47
62592;BME280;48659;41.622;2.276;2023-05-01T03:10:14;99748.95;;;18.32;60.44
62592;BME280;48659;41.622;2.276;2023-05-01T03:12:41;99747.45;;;18.36;59.75
62592;BME280;48659;41.622;2.276;2023-05-01T03:15:09;99752.53;;;17.29;62.57
62592;BME280;48659;41.622;2.276;2023-05-01T03:17:36;99752.20;;;18.43;60.53
62592;BME280;48659;41.622;2.276;2023-05-01T03:20:05;99750.70;;;18.18;60.32
62592;BME280;48659;41.622;2.276;2023-05-01T03:22:32;99752.81;;;15.99;67.76
62592;BME280;48659;41.622;2.276;2023-05-01T03:25:00;99751.44;;;17.08;64.31
62592;BME280;48659;41.622;2.276;2023-05-01T03:27:28;99754.49;;;17.75;63.26
62592;BME280;48659;41.622;2.276;2023-05-01T03:29:56;99754.82;;;17.76;63.13
62592;BME280;48659;41.622;2.276;2023-05-01T03:32:23;99746.24;;;18.04;61.97
62592;BME280;48659;41.622;2.276;2023-05-01T03:34:51;99741.65;;;17.82;62.46
62592;BME280;48659;41.622;2.276;2023-05-01T03:37:18;99738.60;;;17.83;62.34
62592;BME280;48659;41.622;2.276;2023-05-01T03:39:49;99734.06;;;17.68;61.62
62592;BME280;48659;41.622;2.276;2023-05-01T03:42:17;99729.88;;;18.54;60.85
62592;BME280;48659;41.622;2.276;2023-05-01T03:44:48;99729.40;;;18.11;61.46
62592;BME280;48659;41.622;2.276;2023-05-01T03:47:16;99727.41;;;17.23;63.99
62592;BME280;48659;41.622;2.276;2023-05-01T03:49:50;99732.91;;;17.20;62.86
62592;BME280;48659;41.622;2.276;2023-05-01T03:52:17;99729.13;;;17.75;62.44
62592;BME280;48659;41.622;2.276;2023-05-01T03:54:50;99725.07;;;18.27;61.36
62592;BME280;48659;41.622;2.276;2023-05-01T03:57:18;99722.16;;;18.29;61.23
62592;BME280;48659;41.622;2.276;2023-05-01T03:59:45;99722.60;;;18.39;60.90
62592;BME280;48659;41.622;2.276;2023-05-01T04:02:13;99719.08;;;18.23;59.73
62592;BME280;48659;41.622;2.276;2023-05-01T04:04:51;99728.71;;;17.04;63.76
62592;BME280;48659;41.622;2.276;2023-05-01T04:07:19;99724.63;;;18.05;61.32
62592;BME280;48659;41.622;2.276;2023-05-01T04:09:46;99718.60;;;17.60;61.59
62592;BME280;48659;41.622;2.276;2023-05-01T04:12:14;99716.08;;;15.73;67.38
62592;BME280;48659;41.622;2.276;2023-05-01T04:14:42;99716.11;;;16.80;65.19
62592;BME280;48659;41.622;2.276;2023-05-01T04:17:09;99715.13;;;16.68;66.68
62592;BME280;48659;41.622;2.276;2023-05-01T04:19:36;99713.83;;;16.62;65.20
62592;BME280;48659;41.622;2.276;2023-05-01T04:22:04;99719.89;;;17.59;62.82
62592;BME280;48659;41.622;2.276;2023-05-01T04:24:31;99725.24;;;17.97;62.19
62592;BME280;48659;41.622;2.276;2023-05-01T04:26:58;99726.35;;;16.44;65.22
62592;BME280;48659;41.622;2.276;2023-05-01T04:29:25;99732.51;;;17.87;62.65
62592;BME280;48659;41.622;2.276;2023-05-01T04:31:56;99730.13;;;17.78;60.83
62592;BME280;48659;41.622;2.276;2023-05-01T04:34:23;99730.98;;;17.95;61.45
62592;BME280;48659;41.622;2.276;2023-05-01T04:36:51;99719.76;;;17.86;59.25
62592;BME280;48659;41.622;2.276;2023-05-01T04:39:18;99718.96;;;18.57;59.60
62592;BME280;48659;41.622;2.276;2023-05-01T04:41:45;99720.38;;;18.50;58.80
62592;BME280;48659;41.622;2.276;2023-05-01T04:44:12;99723.39;;;18.60;59.55
62592;BME280;48659;41.622;2.276;2023-05-01T04:46:40;99727.86;;;18.63;59.27
62592;BME280;48659;41.622;2.276;2023-05-01T04:49:08;99727.55;;;18.77;59.32
62592;BME280;48659;41.622;2.276;2023-05-01T04:51:35;99726.19;;;18.57;58.83
62592;BME280;48659;41.622;2.276;2023-05-01T04:54:02;99723.29;;;19.25;57.52
62592;BME280;48659;41.622;2.276;2023-05-01T04:56:30;99722.94;;;19.11;58.85
62592;BME280;48659;41.622;2.276;2023-05-01T04:58:58;99724.49;;;17.81;60.06
62592;BME280;48659;41.622;2.276;2023-05-01T05:01:25;99723.75;;;18.34;60.04
62592;BME280;48659;41.622;2.276;2023-05-01T05:03:54;99721.48;;;18.42;59.66
62592;BME280;48659;41.622;2.276;2023-05-01T05:06:21;99726.07;;;18.51;61.37
62592;BME280;48659;41.622;2.276;2023-05-01T05:08:49;99726.40;;;18.03;61.66
62592;BME280;48659;41.622;2.276;2023-05-01T05:11:16;99737.27;;;18.10;61.33
62592;BME280;48659;41.622;2.276;2023-05-01T05:13:51;99746.12;;;18.24;61.29
62592;BME280;48659;41.622;2.276;2023-05-01T05:16:18;99753.94;;;17.72;61.43
62592;BME280;48659;41.622;2.276;2023-05-01T05:18:51;99752.53;;;17.76;60.05
62592;BME280;48659;41.622;2.276;2023-05-01T05:21:18;99748.93;;;18.75;58.45
62592;BME280;48659;41.622;2.276;2023-05-01T05:23:50;99755.96;;;17.81;59.50
62592;BME280;48659;41.622;2.276;2023-05-01T05:26:18;99760.12;;;18.30;60.01
62592;BME280;48659;41.622;2.276;2023-05-01T05:28:45;99749.69;;;18.25;58.63
62592;BME280;48659;41.622;2.276;2023-05-01T05:31:12;99747.64;;;18.87;58.07
62592;BME280;48659;41.622;2.276;2023-05-01T05:33:40;99747.25;;;18.75;58.92
62592;BME280;48659;41.622;2.276;2023-05-01T05:36:07;99760.86;;;18.19;59.44
62592;BME280;48659;41.622;2.276;2023-05-01T05:38:34;99763.91;;;17.91;60.70
62592;BME280;48659;41.622;2.276;2023-05-01T05:41:02;99762.29;;;18.36;59.57
62592;BME280;48659;41.622;2.276;2023-05-01T05:43:29;99764.62;;;18.35;58.80
62592;BME280;48659;41.622;2.276;2023-05-01T05:45:56;99764.06;;;17.43;61.84
62592;BME280;48659;41.622;2.276;2023-05-01T05:48:24;99755.44;;;18.48;60.13
62592;BME280;48659;41.622;2.276;2023-05-01T05:50:52;99759.20;;;17.81;61.21
62592;BME280;48659;41.622;2.276;2023-05-01T05:53:20;99760.63;;;16.76;63.13
62592;BME280;48659;41.622;2.276;2023-05-01T05:55:50;99768.69;;;17.41;60.52
62592;BME280;48659;41.622;2.276;2023-05-01T05:58:18;99772.44;;;16.84;63.81
62592;BME280;48659;41.622;2.276;2023-05-01T06:00:46;99785.77;;;15.46;68.23
62592;BME280;48659;41.622;2.276;2023-05-01T06:03:14;99795.62;;;15.32;68.89
62592;BME280;48659;41.622;2.276;2023-05-01T06:05:43;99802.03;;;15.38;70.17
62592;BME280;48659;41.622;2.276;2023-05-01T06:08:11;99801.65;;;15.54;68.72
62592;BME280;48659;41.622;2.276;2023-05-01T06:10:41;99801.77;;;15.18;70.39
62592;BME280;48659;41.622;2.276;2023-05-01T06:13:08;99796.68;;;16.79;65.94
62592;BME280;48659;41.622;2.276;2023-05-01T06:15:36;99801.30;;;15.10;69.30
62592;BME280;48659;41.622;2.276;2023-05-01T06:18:04;99802.65;;;15.70;67.86
62592;BME280;48659;41.622;2.276;2023-05-01T06:20:31;99800.16;;;16.36;67.36
62592;BME280;48659;41.622;2.276;2023-05-01T06:22:59;99797.45;;;16.24;66.44
62592;BME280;48659;41.622;2.276;2023-05-01T06:25:27;99796.60;;;14.90;69.78
62592;BME280;48659;41.622;2.276;2023-05-01T06:27:54;99795.93;;;14.97;67.80
62592;BME280;48659;41.622;2.276;2023-05-01T06:30:22;99797.26;;;15.69;68.93
62592;BME280;48659;41.622;2.276;2023-05-01T06:32:50;99796.63;;;14.59;72.03
62592;BME280;48659;41.622;2.276;2023-05-01T06:35:18;99799.65;;;14.65;72.81
62592;BME280;48659;41.622;2.276;2023-05-01T06:37:45;99798.19;;;15.09;71.52
62592;BME280;48659;41.622;2.276;2023-05-01T06:40:13;99789.20;;;15.88;69.02
62592;BME280;48659;41.622;2.276;2023-05-01T06:42:41;99787.73;;;15.20;69.66
62592;BME280;48659;41.622;2.276;2023-05-01T06:45:09;99797.30;;;14.22;74.16
62592;BME280;48659;41.622;2.276;2023-05-01T06:47:36;99800.66;;;14.46;74.53
62592;BME280;48659;41.622;2.276;2023-05-01T06:50:05;99798.74;;;14.85;72.49
62592;BME280;48659;41.622;2.276;2023-05-01T06:52:33;99802.02;;;14.68;74.87
62592;BME280;48659;41.622;2.276;2023-05-01T06:55:00;99803.44;;;14.45;73.35
62592;BME280;48659;41.622;2.276;2023-05-01T06:57:27;99800.27;;;15.04;71.10
62592;BME280;48659;41.622;2.276;2023-05-01T06:59:55;99810.30;;;13.15;76.72
62592;BME280;48659;41.622;2.276;2023-05-01T07:02:23;99808.97;;;13.63;76.74
62592;BME280;48659;41.622;2.276;2023-05-01T07:04:51;99815.22;;;14.36;74.95
62592;BME280;48659;41.622;2.276;2023-05-01T07:07:18;99814.07;;;14.29;75.48
62592;BME280;48659;41.622;2.276;2023-05-01T07:09:50;99812.95;;;14.10;74.90
62592;BME280;48659;41.622;2.276;2023-05-01T07:12:18;99810.82;;;14.40;76.23
62592;BME280;48659;41.622;2.276;2023-05-01T07:14:50;99811.36;;;14.06;74.01
62592;BME280;48659;41.622;2.276;2023-05-01T07:17:17;99813.82;;;14.77;72.19
62592;BME280;48659;41.622;2.276;2023-05-01T07:19:50;99808.38;;;14.33;72.43
62592;BME280;48659;41.622;2.276;2023-05-01T07:22:19;99810.08;;;14.46;71.46
62592;BME280;48659;41.622;2.276;2023-05-01T07:24:50;99808.95;;;14.29;71.04
62592;BME280;48659;41.622;2.276;2023-05-01T07:27:17;99809.72;;;14.58;71.30
62592;BME280;48659;41.622;2.276;2023-05-01T07:29:51;99808.99;;;13.80;71.97
62592;BME280;48659;41.622;2.276;2023-05-01T07:32:18;99798.33;;;14.91;69.68
62592;BME280;48659;41.622;2.276;2023-05-01T07:34:51;99797.36;;;14.33;68.34
62592;BME280;48659;41.622;2.276;2023-05-01T07:37:19;99795.42;;;15.13;67.80
62592;BME280;48659;41.622;2.276;2023-05-01T07:39:51;99794.34;;;16.25;64.05
62592;BME280;48659;41.622;2.276;2023-05-01T07:42:18;99792.06;;;16.49;61.91
62592;BME280;48659;41.622;2.276;2023-05-01T07:44:50;99799.20;;;16.06;63.46
62592;BME280;48659;41.622;2.276;2023-05-01T07:47:18;99794.43;;;17.19;60.07
62592;BME280;48659;41.622;2.276;2023-05-01T07:49:51;99796.29;;;16.11;61.71
62592;BME280;48659;41.622;2.276;2023-05-01T07:52:19;99792.19;;;16.94;59.68
62592;BME280;48659;41.622;2.276;2023-05-01T07:54:49;99790.81;;;15.00;64.39
62592;BME280;48659;41.622;2.276;2023-05-01T07:57:18;99785.39;;;16.13;63.24
62592;BME280;48659;41.622;2.276;2023-05-01T07:59:53;99783.07;;;16.61;59.16
62592;BME280;48659;41.622;2.276;2023-05-01T08:02:21;99786.44;;;16.15;59.69
62592;BME280;48659;41.622;2.276;2023-05-01T08:04:51;99786.35;;;16.97;56.85
62592;BME280;48659;41.622;2.276;2023-05-01T08:07:18;99780.56;;;18.81;52.68
62592;BME280;48659;41.622;2.276;2023-05-01T08:09:51;99777.23;;;19.28;50.39
62592;BME280;48659;41.622;2.276;2023-05-01T08:12:19;99778.27;;;19.12;51.17
62592;BME280;48659;41.622;2.276;2023-05-01T08:14:51;99778.32;;;18.88;51.30
62592;BME280;48659;41.622;2.276;2023-05-01T08:17:17;99780.29;;;19.07;52.63
62592;BME280;48659;41.622;2.276;2023-05-01T08:19:50;99777.28;;;19.49;49.92
62592;BME280;48659;41.622;2.276;2023-05-01T08:22:17;99777.76;;;19.08;50.57
62592;BME280;48659;41.622;2.276;2023-05-01T08:24:51;99777.66;;;19.77;48.67
62592;BME280;48659;41.622;2.276;2023-05-01T08:27:19;99782.82;;;18.69;52.18
62592;BME280;48659;41.622;2.276;2023-05-01T08:29:51;99787.81;;;16.50;57.41
62592;BME280;48659;41.622;2.276;2023-05-01T08:32:19;99782.14;;;18.92;53.08
62592;BME280;48659;41.622;2.276;2023-05-01T08:34:50;99793.91;;;17.03;56.50
62592;BME280;48659;41.622;2.276;2023-05-01T08:37:18;99789.98;;;18.11;55.30
62592;BME280;48659;41.622;2.276;2023-05-01T08:39:51;99789.45;;;18.25;53.34
62592;BME280;48659;41.622;2.276;2023-05-01T08:42:19;99790.94;;;19.91;49.93
62592;BME280;48659;41.622;2.276;2023-05-01T08:44:52;99791.59;;;18.43;51.47
62592;BME280;48659;41.622;2.276;2023-05-01T08:47:23;99792.81;;;20.79;47.90
62592;BME280;48659;41.622;2.276;2023-05-01T08:49:51;99800.06;;;18.48;50.65
62592;BME280;48659;41.622;2.276;2023-05-01T08:52:19;99805.55;;;18.50;53.27
62592;BME280;48659;41.622;2.276;2023-05-01T08:54:51;99801.72;;;20.32;48.31
62592;BME280;48659;41.622;2.276;2023-05-01T08:57:22;99801.47;;;20.82;47.37
62592;BME280;48659;41.622;2.276;2023-05-01T08:59:50;99801.40;;;18.65;51.94
62592;BME280;48659;41.622;2.276;2023-05-01T09:02:21;99804.00;;;20.24;49.90
62592;BME280;48659;41.622;2.276;2023-05-01T09:04:50;99798.42;;;20.78;46.89
62592;BME280;48659;41.622;2.276;2023-05-01T09:07:17;99798.52;;;21.00;48.52
62592;BME280;48659;41.622;2.276;2023-05-01T09:09:45;99796.63;;;21.01;47.05
62592;BME280;48659;41.622;2.276;2023-05-01T09:12:19;99795.14;;;21.42;47.74
62592;BME280;48659;41.622;2.276;2023-05-01T09:14:48;99796.37;;;20.73;48.95
62592;BME280;48659;41.622;2.276;2023-05-01T09:17:16;99797.60;;;21.63;47.49
62592;BME280;48659;41.622;2.276;2023-05-01T09:19:50;99794.10;;;21.34;47.07
62592;BME280;48659;41.622;2.276;2023-05-01T09:22:18;99792.08;;;21.13;45.57
62592;BME280;48659;41.622;2.276;2023-05-01T09:24:46;99794.91;;;21.60;44.55
62592;BME280;48659;41.622;2.276;2023-05-01T09:27:13;99803.36;;;20.94;46.99
62592;BME280;48659;41.622;2.276;2023-05-01T09:29:43;99804.59;;;20.57;47.56
62592;BME280;48659;41.622;2.276;2023-05-01T09:32:14;99802.40;;;21.19;45.21
62592;BME280;48659;41.622;2.276;2023-05-01T09:34:55;99801.82;;;21.87;43.05
62592;BME280;48659;41.622;2.276;2023-05-01T09:37:35;99799.41;;;21.82;43.60
62592;BME280;48659;41.622;2.276;2023-05-01T09:40:05;99798.40;;;21.64;45.23
62592;BME280;48659;41.622;2.276;2023-05-01T09:42:33;99803.60;;;22.21;44.36
62592;BME280;48659;41.622;2.276;2023-05-01T09:45:02;99803.14;;;21.80;45.33
62592;BME280;48659;41.622;2.276;2023-05-01T09:47:30;99803.42;;;21.55;47.56
62592;BME280;48659;41.622;2.276;2023-05-01T09:49:58;99810.52;;;19.50;52.09
62592;BME280;48659;41.622;2.276;2023-05-01T09:52:27;99815.95;;;19.43;54.36
62592;BME280;48659;41.622;2.276;2023-05-01T09:55:26;99812.15;;;19.93;53.01
62592;BME280;48659;41.622;2.276;2023-05-01T09:57:54;99803.84;;;20.53;50.62
62592;BME280;48659;41.622;2.276;2023-05-01T10:00:21;99811.03;;;19.07;53.91
62592;BME280;48659;41.622;2.276;2023-05-01T10:02:51;99810.77;;;18.93;54.21
62592;BME280;48659;41.622;2.276;2023-05-01T10:05:19;99806.32;;;19.23;53.60
62592;BME280;48659;41.622;2.276;2023-05-01T10:07:56;99812.05;;;17.78;55.68
62592;BME280;48659;41.622;2.276;2023-05-01T10:10:24;99810.79;;;19.94;53.01
62592;BME280;48659;41.622;2.276;2023-05-01T10:12:52;99812.63;;;19.63;51.50
62592;BME280;48659;41.622;2.276;2023-05-01T10:15:20;99807.32;;;21.03;48.72
62592;BME280;48659;41.622;2.276;2023-05-01T10:17:49;99805.60;;;20.49;48.64
62592;BME280;48659;41.622;2.276;2023-05-01T10:20:17;99804.67;;;21.39;47.29
62592;BME280;48659;41.622;2.276;2023-05-01T10:22:50;99816.53;;;18.68;52.55
62592;BME280;48659;41.622;2.276;2023-05-01T10:25:19;99832.63;;;20.02;50.87
62592;BME280;48659;41.622;2.276;2023-05-01T10:27:51;99842.08;;;20.26;48.38
62592;BME280;48659;41.622;2.276;2023-05-01T10:30:19;99858.59;;;17.08;58.13
62592;BME280;48659;41.622;2.276;2023-05-01T10:32:51;99875.21;;;16.36;58.61
62592;BME280;48659;41.622;2.276;2023-05-01T10:35:23;99878.75;;;16.79;60.26
62592;BME280;48659;41.622;2.276;2023-05-01T10:37:58;99867.82;;;16.79;58.50
62592;BME280;48659;41.622;2.276;2023-05-01T10:40:51;99867.65;;;15.55;62.67
62592;BME280;48659;41.622;2.276;2023-05-01T10:43:20;99864.57;;;16.13;61.67
62592;BME280;48659;41.622;2.276;2023-05-01T10:45:50;99849.27;;;16.17;60.58
62592;BME280;48659;41.622;2.276;2023-05-01T10:49:22;99841.97;;;17.15;59.34
62592;BME280;48659;41.622;2.276;2023-05-01T10:51:59;99837.00;;;16.82;58.21
62592;BME280;48659;41.622;2.276;2023-05-01T10:54:28;99826.68;;;17.63;57.32
62592;BME280;48659;41.622;2.276;2023-05-01T10:56:57;99819.00;;;18.86;52.49
62592;BME280;48659;41.622;2.276;2023-05-01T10:59:25;99835.04;;;17.95;55.70
62592;BME280;48659;41.622;2.276;2023-05-01T11:01:53;99830.15;;;16.48;58.33
62592;BME280;48659;41.622;2.276;2023-05-01T11:04:54;99824.45;;;17.03;57.61
62592;BME280;48659;41.622;2.276;2023-05-01T11:07:22;99828.45;;;17.69;56.66
62592;BME280;48659;41.622;2.276;2023-05-01T11:09:52;99835.45;;;17.54;55.52
62592;BME280;48659;41.622;2.276;2023-05-01T11:12:52;99836.17;;;18.57;54.17
62592;BME280;48659;41.622;2.276;2023-05-01T11:15:28;99833.49;;;19.50;52.23
62592;BME280;48659;41.622;2.276;2023-05-01T11:17:56;99828.21;;;18.31;52.54
62592;BME280;48659;41.622;2.276;2023-05-01T11:20:56;99826.44;;;17.71;54.27
62592;BME280;48659;41.622;2.276;2023-05-01T11:23:24;99826.67;;;17.37;56.01
62592;BME280;48659;41.622;2.276;2023-05-01T11:26:02;99817.17;;;18.38;51.91
62592;BME280;48659;41.622;2.276;2023-05-01T11:28:30;99818.85;;;17.51;53.14
62592;BME280;48659;41.622;2.276;2023-05-01T11:30:57;99822.26;;;19.03;50.38
62592;BME280;48659;41.622;2.276;2023-05-01T11:33:25;99823.36;;;18.72;51.48
62592;BME280;48659;41.622;2.276;2023-05-01T11:35:57;99817.24;;;17.71;51.77
62592;BME280;48659;41.622;2.276;2023-05-01T11:38:24;99815.92;;;18.63;51.74
62592;BME280;48659;41.622;2.276;2023-05-01T11:40:54;99811.37;;;18.00;51.82
62592;BME280;48659;41.622;2.276;2023-05-01T11:43:22;99814.22;;;18.44;51.58
62592;BME280;48659;41.622;2.276;2023-05-01T11:45:52;99807.11;;;19.23;48.26
62592;BME280;48659;41.622;2.276;2023-05-01T11:48:20;99804.91;;;18.82;50.02
62592;BME280;48659;41.622;2.276;2023-05-01T11:50:52;99810.01;;;18.73;49.61
62592;BME280;48659;41.622;2.276;2023-05-01T11:53:19;99818.45;;;18.74;49.66
62592;BME280;48659;41.622;2.276;2023-05-01T11:55:50;99814.17;;;19.12;49.78
62592;BME280;48659;41.622;2.276;2023-05-01T11:58:29;99807.06;;;18.91;48.06
62592;BME280;48659;41.622;2.276;2023-05-01T12:00:57;99801.26;;;17.87;48.81
62592;BME280;48659;41.622;2.276;2023-05-01T12:03:26;99795.54;;;19.12;47.70
62592;BME280;48659;41.622;2.276;2023-05-01T12:05:53;99802.86;;;19.58;45.88
62592;BME280;48659;41.622;2.276;2023-05-01T12:08:21;99800.19;;;21.48;43.52
62592;BME280;48659;41.622;2.276;2023-05-01T12:10:52;99794.66;;;20.82;45.27
62592;BME280;48659;41.622;2.276;2023-05-01T12:13:20;99799.35;;;19.14;47.23
62592;BME280;48659;41.622;2.276;2023-05-01T12:15:52;99812.85;;;18.00;48.06
62592;BME280;48659;41.622;2.276;2023-05-01T12:18:19;99805.76;;;18.86;46.87
62592;BME280;48659;41.622;2.276;2023-05-01T12:20:49;99797.09;;;20.49;43.65
62592;BME280;48659;41.622;2.276;2023-05-01T12:23:18;99804.01;;;19.92;44.60
62592;BME280;48659;41.622;2.276;2023-05-01T12:25:51;99802.22;;;20.03;43.15
62592;BME280;48659;41.622;2.276;2023-05-01T12:28:19;99789.28;;;20.70;42.31
62592;BME280;48659;41.622;2.276;2023-05-01T12:30:47;99786.37;;;19.12;43.89
62592;BME280;48659;41.622;2.276;2023-05-01T12:33:16;99800.43;;;18.23;46.15
62592;BME280;48659;41.622;2.276;2023-05-01T12:35:46;99801.10;;;18.65;46.39
62592;BME280;48659;41.622;2.276;2023-05-01T12:38:15;99795.86;;;19.70;44.05
62592;BME280;48659;41.622;2.276;2023-05-01T12:40:52;99790.38;;;19.19;45.54
62592;BME280;48659;41.622;2.276;2023-05-01T12:43:20;99785.61;;;18.40;47.01
62592;BME280;48659;41.622;2.276;2023-05-01T12:45:51;99783.89;;;17.81;46.11
62592;BME280;48659;41.622;2.276;2023-05-01T12:48:19;99789.49;;;18.67;46.19
62592;BME280;48659;41.622;2.276;2023-05-01T12:50:52;99799.08;;;19.77;43.76
62592;BME280;48659;41.622;2.276;2023-05-01T12:53:20;99788.09;;;19.98;43.76
62592;BME280;48659;41.622;2.276;2023-05-01T12:55:50;99782.52;;;19.47;45.01
62592;BME280;48659;41.622;2.276;2023-05-01T12:58:18;99779.57;;;20.62;42.48
62592;BME280;48659;41.622;2.276;2023-05-01T13:00:47;99792.94;;;18.56;45.14
62592;BME280;48659;41.622;2.276;2023-05-01T13:03:24;99805.57;;;19.27;44.69
62592;BME280;48659;41.622;2.276;2023-05-01T13:05:54;99812.03;;;18.40;46.10
62592;BME280;48659;41.622;2.276;2023-05-01T13:08:27;99803.58;;;20.94;43.13
62592;BME280;48659;41.622;2.276;2023-05-01T13:10:56;99803.84;;;21.51;41.18
62592;BME280;48659;41.622;2.276;2023-05-01T13:13:26;99813.20;;;19.27;45.40
62592;BME280;48659;41.622;2.276;2023-05-01T13:16:03;99812.17;;;20.07;44.57
62592;BME280;48659;41.622;2.276;2023-05-01T13:18:32;99816.00;;;19.74;44.18